createdAt,value
2022-12-03T00:00:13.903Z,102429.03
2022-12-03T00:02:41.981Z,102425.91
2022-12-03T00:05:11.061Z,102418.97
2022-12-03T00:07:39.011Z,102421.72
2022-12-03T00:10:09.307Z,102415.25
2022-12-03T00:12:37.019Z,102416.81
2022-12-03T00:15:05.787Z,102423.81
2022-12-03T00:17:33.629Z,102419.44
2022-12-03T00:20:01.639Z,102417.91
2022-12-03T00:22:29.372Z,102413.63
2022-12-03T00:24:57.160Z,102421.41
2022-12-03T00:27:26.255Z,102416.09
2022-12-03T00:29:53.995Z,102412.63
2022-12-03T00:32:21.690Z,102410.41
2022-12-03T00:34:49.443Z,102408.44
2022-12-03T00:37:17.208Z,102411.13
2022-12-03T00:39:44.956Z,102407.59
2022-12-03T00:42:12.705Z,102396.03
2022-12-03T00:44:41.785Z,102392.19
2022-12-03T00:47:10.750Z,102399.56
2022-12-03T00:49:38.841Z,102391.13
2022-12-03T00:52:06.588Z,102402.22
2022-12-03T00:54:34.498Z,102389.88
2022-12-03T00:57:02.317Z,102396.03
2022-12-03T00:59:30.040Z,102388.75
2022-12-03T01:01:59.235Z,102384.97
2022-12-03T01:04:27.090Z,102388.00
2022-12-03T01:06:54.872Z,102385.72
2022-12-03T01:09:22.816Z,102381.13
2022-12-03T01:11:50.520Z,102379.63
2022-12-03T01:14:20.591Z,102383.88
2022-12-03T01:16:49.052Z,102369.53
2022-12-03T01:19:19.406Z,102377.59
2022-12-03T01:21:50.662Z,102373.72
2022-12-03T01:24:18.979Z,102375.63
2022-12-03T01:26:46.767Z,102368.38
2022-12-03T01:29:15.133Z,102371.50
2022-12-03T01:32:00.930Z,102361.84
2022-12-03T01:34:30.023Z,102370.72
2022-12-03T01:36:57.952Z,102370.75
2022-12-03T01:39:25.908Z,102370.41
2022-12-03T01:41:55.200Z,102371.53
2022-12-03T01:44:24.977Z,102366.97
2022-12-03T01:46:55.734Z,102372.75
2022-12-03T01:49:26.579Z,102376.88
2022-12-03T01:51:57.079Z,102371.50
2022-12-03T01:54:29.305Z,102370.34
2022-12-03T01:56:57.431Z,102365.69
2022-12-03T01:59:34.036Z,102364.59
2022-12-03T02:02:09.577Z,102368.44
2022-12-03T02:04:37.344Z,102364.59
2022-12-03T02:07:23.674Z,102364.25
2022-12-03T02:09:51.951Z,102362.75
2022-12-03T02:12:29.576Z,102368.13
2022-12-03T02:14:57.840Z,102362.69
2022-12-03T02:17:25.772Z,102368.56
2022-12-03T02:19:54.540Z,102368.78
2022-12-03T02:22:32.960Z,102366.88
2022-12-03T02:25:24.880Z,102362.25
2022-12-03T02:27:54.808Z,102358.78
2022-12-03T02:30:26.051Z,102361.56
2022-12-03T02:32:55.035Z,102363.06
2022-12-03T02:35:25.343Z,102355.44
2022-12-03T02:37:58.079Z,102356.28
2022-12-03T02:40:30.023Z,102362.00
2022-12-03T02:42:59.711Z,102364.28
2022-12-03T02:45:30.498Z,102355.13
2022-12-03T02:48:01.150Z,102348.97
2022-12-03T02:50:32.365Z,102353.94
2022-12-03T02:53:02.652Z,102356.94
2022-12-03T02:55:37.178Z,102352.97
2022-12-03T02:58:06.514Z,102356.34
2022-12-03T03:00:35.661Z,102351.75
2022-12-03T03:03:05.414Z,102343.28
2022-12-03T03:05:34.439Z,102345.16
2022-12-03T03:08:03.270Z,102345.16
2022-12-03T03:10:35.462Z,102344.47
2022-12-03T03:13:06.743Z,102340.66
2022-12-03T03:15:36.674Z,102342.28
2022-12-03T03:18:04.623Z,102339.63
2022-12-03T03:20:32.423Z,102336.94
2022-12-03T03:23:07.361Z,102341.59
2022-12-03T03:25:36.492Z,102333.56
2022-12-03T03:28:04.477Z,102331.25
2022-12-03T03:30:32.624Z,102336.22
2022-12-03T03:33:00.557Z,102330.88
2022-12-03T03:35:28.856Z,102327.41
2022-12-03T03:37:58.699Z,102330.84
2022-12-03T03:40:27.348Z,102328.84
2022-12-03T03:42:57.152Z,102328.81
2022-12-03T03:45:29.068Z,102319.22
2022-12-03T03:47:58.452Z,102321.19
2022-12-03T03:50:27.748Z,102316.22
2022-12-03T03:52:56.668Z,102321.19
2022-12-03T03:55:24.875Z,102320.34
2022-12-03T03:57:52.828Z,102319.56
2022-12-03T04:00:22.112Z,102313.06
2022-12-03T04:02:49.869Z,102307.69
2022-12-03T04:05:19.440Z,102303.50
2022-12-03T04:07:47.468Z,102313.94
2022-12-03T04:10:32.623Z,102306.56
2022-12-03T04:13:01.645Z,102317.72
2022-12-03T04:15:30.944Z,102304.97
2022-12-03T04:18:21.534Z,102308.03
2022-12-03T04:20:49.315Z,102305.38
2022-12-03T04:23:16.345Z,102296.09
2022-12-03T04:26:00.993Z,102295.69
2022-12-03T04:28:46.476Z,102299.94
2022-12-03T04:31:33.286Z,102297.59
2022-12-03T04:34:18.336Z,102292.22
2022-12-03T04:36:46.084Z,102295.31
2022-12-03T04:39:13.815Z,102294.97
2022-12-03T04:41:41.584Z,102284.94
2022-12-03T04:44:26.779Z,102296.09
2022-12-03T04:46:55.869Z,102291.50
2022-12-03T04:49:23.835Z,102289.63
2022-12-03T04:51:51.577Z,102287.75
2022-12-03T04:54:19.315Z,102291.59
2022-12-03T04:56:47.033Z,102296.09
2022-12-03T04:59:16.480Z,102291.50
2022-12-03T05:01:45.181Z,102290.00
2022-12-03T05:04:15.434Z,102298.84
2022-12-03T05:06:43.884Z,102291.53
2022-12-03T05:09:12.621Z,102288.84
2022-12-03T05:11:40.792Z,102291.91
2022-12-03T05:14:08.807Z,102300.34
2022-12-03T05:16:37.117Z,102291.13
2022-12-03T05:19:05.782Z,102288.75
2022-12-03T05:21:34.940Z,102278.72
2022-12-03T05:24:03.123Z,102289.06
2022-12-03T05:26:30.967Z,102281.75
2022-12-03T05:28:58.840Z,102285.59
2022-12-03T05:31:26.713Z,102277.53
2022-12-03T05:33:55.137Z,102280.56
2022-12-03T05:36:22.941Z,102282.06
2022-12-03T05:38:52.054Z,102272.78
2022-12-03T05:41:37.561Z,102277.81
2022-12-03T05:44:05.411Z,102277.00
2022-12-03T05:46:33.766Z,102282.38
2022-12-03T05:49:01.594Z,102277.69
2022-12-03T05:51:29.327Z,102276.91
2022-12-03T05:54:00.128Z,102272.72
2022-12-03T05:56:27.870Z,102263.13
2022-12-03T05:58:55.595Z,102267.72
2022-12-03T06:01:23.349Z,102261.53
2022-12-03T06:03:53.009Z,102261.19
2022-12-03T06:06:20.839Z,102254.66
2022-12-03T06:08:48.600Z,102257.38
2022-12-03T06:11:17.651Z,102256.22
2022-12-03T06:13:45.426Z,102253.88
2022-12-03T06:16:13.189Z,102248.44
2022-12-03T06:18:40.987Z,102246.53
2022-12-03T06:21:08.736Z,102240.00
2022-12-03T06:23:37.379Z,102237.28
2022-12-03T06:26:05.186Z,102243.47
2022-12-03T06:28:34.339Z,102234.59
2022-12-03T06:31:02.248Z,102239.28
2022-12-03T06:33:30.150Z,102245.78
2022-12-03T06:35:57.906Z,102250.81
2022-12-03T06:38:25.709Z,102252.34
2022-12-03T06:40:53.446Z,102253.06
2022-12-03T06:43:21.181Z,102247.28
2022-12-03T06:45:50.273Z,102249.63
2022-12-03T06:48:18.019Z,102249.63
2022-12-03T06:50:45.796Z,102241.91
2022-12-03T06:53:13.536Z,102251.13
2022-12-03T06:55:41.305Z,102237.59
2022-12-03T06:58:09.060Z,102237.19
2022-12-03T07:00:36.806Z,102246.06
2022-12-03T07:03:05.946Z,102240.25
2022-12-03T07:05:33.776Z,102241.09
2022-12-03T07:08:01.614Z,102250.72
2022-12-03T07:10:29.426Z,102246.88
2022-12-03T07:12:57.220Z,102253.00
2022-12-03T07:15:24.915Z,102245.69
2022-12-03T07:17:52.636Z,102251.13
2022-12-03T07:20:21.782Z,102253.75
2022-12-03T07:22:49.520Z,102257.19
2022-12-03T07:25:22.902Z,102256.78
2022-12-03T07:27:51.407Z,102261.38
2022-12-03T07:30:20.140Z,102270.59
2022-12-03T07:32:47.926Z,102267.13
2022-12-03T07:35:17.339Z,102266.34
2022-12-03T07:37:46.675Z,102262.91
2022-12-03T07:40:14.799Z,102265.59
2022-12-03T07:42:42.555Z,102259.78
2022-12-03T07:45:11.479Z,102269.41
2022-12-03T07:47:39.217Z,102259.81
2022-12-03T07:50:08.319Z,102260.97
2022-12-03T07:52:36.033Z,102269.81
2022-12-03T07:55:05.829Z,102264.81
2022-12-03T07:57:33.576Z,102263.59
2022-12-03T08:00:01.335Z,102260.50
2022-12-03T08:02:29.173Z,102265.91
2022-12-03T08:04:57.016Z,102260.91
2022-12-03T08:07:24.878Z,102262.81
2022-12-03T08:09:52.863Z,102258.63
2022-12-03T08:12:39.809Z,102261.69
2022-12-03T08:15:12.360Z,102263.59
2022-12-03T08:17:40.593Z,102263.25
2022-12-03T08:20:14.103Z,102257.09
2022-12-03T08:22:42.347Z,102259.81
2022-12-03T08:25:18.280Z,102250.97
2022-12-03T08:27:47.386Z,102245.59
2022-12-03T08:30:16.996Z,102241.69
2022-12-03T08:32:45.229Z,102244.81
2022-12-03T08:35:14.662Z,102243.66
2022-12-03T08:37:42.604Z,102238.66
2022-12-03T08:40:29.010Z,102242.47
2022-12-03T08:42:58.165Z,102244.75
2022-12-03T08:45:39.586Z,102239.31
2022-12-03T08:48:23.126Z,102242.00
2022-12-03T08:50:50.780Z,102250.81
2022-12-03T08:53:28.493Z,102241.94
2022-12-03T08:55:57.744Z,102242.44
2022-12-03T08:58:34.468Z,102239.31
2022-12-03T09:01:17.168Z,102243.56
2022-12-03T09:03:51.011Z,102244.63
2022-12-03T09:06:18.945Z,102248.13
2022-12-03T09:08:46.715Z,102239.78
2022-12-03T09:11:15.043Z,102233.22
2022-12-03T09:13:44.285Z,102231.59
2022-12-03T09:16:12.229Z,102227.69
2022-12-03T09:18:39.967Z,102226.09
2022-12-03T09:21:07.718Z,102225.69
2022-12-03T09:23:35.457Z,102227.97
2022-12-03T09:26:03.195Z,102229.47
2022-12-03T09:28:30.932Z,102232.56
2022-12-03T09:31:01.398Z,102217.91
2022-12-03T09:33:30.170Z,102219.94
2022-12-03T09:35:57.925Z,102233.75
2022-12-03T09:38:25.939Z,102230.97
2022-12-03T09:40:53.856Z,102225.88
2022-12-03T09:43:22.632Z,102228.53
2022-12-03T09:45:50.479Z,102233.53
2022-12-03T09:48:22.280Z,102231.22
2022-12-03T09:50:50.988Z,102233.53
2022-12-03T09:53:21.862Z,102231.34
2022-12-03T09:55:50.400Z,102228.66
2022-12-03T09:58:19.855Z,102230.50
2022-12-03T10:00:49.709Z,102232.75
2022-12-03T10:03:21.328Z,102231.94
2022-12-03T10:05:54.889Z,102225.03
2022-12-03T10:08:27.013Z,102227.38
2022-12-03T10:10:58.648Z,102238.91
2022-12-03T10:13:29.107Z,102235.88
2022-12-03T10:15:59.497Z,102235.09
2022-12-03T10:18:30.926Z,102235.81
2022-12-03T10:21:00.678Z,102224.56
2022-12-03T10:23:30.163Z,102237.63
2022-12-03T10:26:00.674Z,102228.34
2022-12-03T10:28:31.520Z,102229.00
2022-12-03T10:31:00.497Z,102232.88
2022-12-03T10:33:39.337Z,102227.16
2022-12-03T10:36:32.321Z,102236.78
2022-12-03T10:39:12.298Z,102227.88
2022-12-03T10:41:41.264Z,102217.78
2022-12-03T10:44:20.217Z,102211.91
2022-12-03T10:47:06.961Z,102207.66
2022-12-03T10:49:34.848Z,102202.75
2022-12-03T10:52:04.883Z,102210.13
2022-12-03T10:54:36.320Z,102192.47
2022-12-03T10:57:04.905Z,102197.47
2022-12-03T10:59:35.181Z,102190.50
2022-12-03T11:02:04.571Z,102195.81
2022-12-03T11:04:35.042Z,102192.28
2022-12-03T11:07:13.280Z,102186.50
2022-12-03T11:09:45.032Z,102192.94
2022-12-03T11:12:19.952Z,102183.38
2022-12-03T11:15:06.290Z,102188.28
2022-12-03T11:17:49.324Z,102185.25
2022-12-03T11:21:11.025Z,102174.19
2022-12-03T11:24:18.427Z,102181.19
2022-12-03T11:27:16.890Z,102171.97
2022-12-03T11:29:56.120Z,102173.97
2022-12-03T11:33:07.226Z,102165.75
2022-12-03T11:35:53.891Z,102162.03
2022-12-03T11:38:55.133Z,102167.34
2022-12-03T11:41:25.812Z,102160.75
2022-12-03T11:44:19.051Z,102142.75
2022-12-03T11:46:47.879Z,102141.66
2022-12-03T11:49:34.062Z,102138.59
2022-12-03T11:52:04.383Z,102143.63
2022-12-03T11:54:36.154Z,102144.75
2022-12-03T11:57:24.995Z,102138.25
2022-12-03T12:00:10.284Z,102137.47
2022-12-03T12:02:42.814Z,102135.56
2022-12-03T12:05:19.934Z,102133.22
2022-12-03T12:07:48.464Z,102130.84
2022-12-03T12:10:40.252Z,102130.84
2022-12-03T12:13:26.985Z,102132.44
2022-12-03T12:15:55.019Z,102125.38
2022-12-03T12:18:37.037Z,102129.66
2022-12-03T12:21:43.523Z,102120.09
2022-12-03T12:24:31.426Z,102115.44
2022-12-03T12:27:01.327Z,102113.16
2022-12-03T12:29:30.484Z,102107.81
2022-12-03T12:32:07.809Z,102105.09
2022-12-03T12:34:38.299Z,102094.31
2022-12-03T12:37:10.941Z,102089.72
2022-12-03T12:39:38.838Z,102093.25
2022-12-03T12:42:37.974Z,102093.53
2022-12-03T12:45:20.356Z,102090.06
2022-12-03T12:47:51.110Z,102082.06
2022-12-03T12:50:20.164Z,102084.38
2022-12-03T12:52:54.052Z,102081.66
2022-12-03T12:55:23.790Z,102079.78
2022-12-03T12:57:52.315Z,102083.25
2022-12-03T13:00:23.812Z,102084.78
2022-12-03T13:02:55.789Z,102084.75
2022-12-03T13:05:27.618Z,102078.22
2022-12-03T13:07:56.258Z,102072.00
2022-12-03T13:10:42.540Z,102069.31
2022-12-03T13:13:21.495Z,102070.88
2022-12-03T13:15:58.315Z,102075.09
2022-12-03T13:18:34.107Z,102080.75
2022-12-03T13:21:12.479Z,102075.31
2022-12-03T13:23:41.626Z,102072.31
2022-12-03T13:26:32.931Z,102077.69
2022-12-03T13:29:12.870Z,102077.28
2022-12-03T13:31:44.406Z,102073.09
2022-12-03T13:34:22.815Z,102075.09
2022-12-03T13:36:57.478Z,102066.28
2022-12-03T13:39:31.706Z,102056.28
2022-12-03T13:42:24.068Z,102056.28
2022-12-03T13:44:53.007Z,102051.22
2022-12-03T13:47:24.751Z,102044.69
2022-12-03T13:49:55.451Z,102055.84
2022-12-03T13:52:25.896Z,102054.66
2022-12-03T13:54:56.023Z,102048.84
2022-12-03T13:57:24.275Z,102055.41
2022-12-03T13:59:52.581Z,102041.56
2022-12-03T14:02:22.139Z,102042.59
2022-12-03T14:04:51.349Z,102035.31
2022-12-03T14:07:20.784Z,102043.72
2022-12-03T14:09:48.524Z,102044.38
2022-12-03T14:12:33.390Z,102041.28
2022-12-03T14:15:01.561Z,102048.22
2022-12-03T14:17:31.261Z,102043.94
2022-12-03T14:20:00.912Z,102039.31
2022-12-03T14:22:28.954Z,102032.81
2022-12-03T14:24:57.443Z,102032.81
2022-12-03T14:27:25.318Z,102026.59
2022-12-03T14:29:53.694Z,102029.72
2022-12-03T14:32:21.836Z,102024.34
2022-12-03T14:34:50.941Z,102026.19
2022-12-03T14:37:18.720Z,102026.13
2022-12-03T14:39:46.462Z,102026.06
2022-12-03T14:42:14.276Z,102027.63
2022-12-03T14:44:42.165Z,102022.25
2022-12-03T14:47:10.027Z,102021.13
2022-12-03T14:49:37.854Z,102024.50
2022-12-03T14:52:11.340Z,102016.06
2022-12-03T14:54:42.121Z,102028.75
2022-12-03T14:57:11.297Z,102016.41
2022-12-03T14:59:39.188Z,102027.16
2022-12-03T15:02:06.980Z,102030.63
2022-12-03T15:04:34.974Z,102028.38
2022-12-03T15:07:02.793Z,102019.97
2022-12-03T15:09:32.034Z,102021.00
2022-12-03T15:12:00.009Z,102022.84
2022-12-03T15:14:28.077Z,102023.97
2022-12-03T15:16:56.168Z,102025.97
2022-12-03T15:19:24.005Z,102022.84
2022-12-03T15:22:06.833Z,102021.72
2022-12-03T15:24:35.978Z,102027.09
2022-12-03T15:27:03.763Z,102021.00
2022-12-03T15:29:32.884Z,102021.81
2022-12-03T15:32:01.069Z,102023.84
2022-12-03T15:34:28.844Z,102019.13
2022-12-03T15:36:56.601Z,102023.69
2022-12-03T15:39:24.424Z,102018.56
2022-12-03T15:41:53.560Z,102027.81
2022-12-03T15:44:22.423Z,102026.38
2022-12-03T15:46:50.146Z,102022.44
2022-12-03T15:49:17.911Z,102024.78
2022-12-03T15:51:45.730Z,102027.09
2022-12-03T15:54:13.491Z,102033.91
2022-12-03T15:56:41.221Z,102038.88
2022-12-03T15:59:10.360Z,102039.28
2022-12-03T16:01:38.201Z,102033.84
2022-12-03T16:04:06.287Z,102030.81
2022-12-03T16:06:34.072Z,102031.22
2022-12-03T16:09:01.878Z,102030.03
2022-12-03T16:11:29.683Z,102033.84
2022-12-03T16:13:57.415Z,102026.63
2022-12-03T16:16:26.589Z,102028.88
2022-12-03T16:18:54.527Z,102026.44
2022-12-03T16:21:26.642Z,102039.09
2022-12-03T16:23:55.328Z,102029.91
2022-12-03T16:26:23.219Z,102016.06
2022-12-03T16:28:50.956Z,102022.94
2022-12-03T16:31:19.119Z,102023.31
2022-12-03T16:33:48.625Z,102019.88
2022-12-03T16:36:16.571Z,102028.69
2022-12-03T16:38:44.348Z,102022.50
2022-12-03T16:41:12.096Z,102021.25
2022-12-03T16:43:39.877Z,102020.91
2022-12-03T16:46:21.349Z,102019.31
2022-12-03T16:48:50.907Z,102005.13
2022-12-03T16:51:20.015Z,102002.84
2022-12-03T16:53:48.163Z,102002.84
2022-12-03T16:56:16.372Z,102007.47
2022-12-03T16:58:44.771Z,102007.47
2022-12-03T17:01:13.179Z,102006.63
2022-12-03T17:03:42.169Z,101997.78
2022-12-03T17:06:11.289Z,101998.22
2022-12-03T17:08:41.046Z,101998.63
2022-12-03T17:11:11.008Z,101998.56
2022-12-03T17:13:38.742Z,102002.38
2022-12-03T17:16:07.311Z,102000.91
2022-12-03T17:18:35.091Z,102000.94
2022-12-03T17:21:02.855Z,102005.97
2022-12-03T17:23:32.018Z,102000.94
2022-12-03T17:25:59.829Z,102007.38
2022-12-03T17:28:27.629Z,102003.59
2022-12-03T17:30:55.424Z,102002.75
2022-12-03T17:33:25.004Z,102004.94
2022-12-03T17:35:52.829Z,102004.16
2022-12-03T17:38:20.647Z,102015.31
2022-12-03T17:40:49.754Z,102006.50
2022-12-03T17:43:17.496Z,102008.75
2022-12-03T17:45:45.213Z,102011.88
2022-12-03T17:48:12.966Z,102005.00
2022-12-03T17:50:40.830Z,102003.94
2022-12-03T17:53:10.398Z,102001.16
2022-12-03T17:55:44.651Z,101999.97
2022-12-03T17:58:14.904Z,102006.50
2022-12-03T18:00:42.708Z,102003.47
2022-12-03T18:03:10.512Z,101994.38
2022-12-03T18:05:38.434Z,102006.63
2022-12-03T18:08:06.971Z,102003.84
2022-12-03T18:10:34.857Z,102000.69
2022-12-03T18:13:02.691Z,101999.94
2022-12-03T18:15:33.260Z,101993.41
2022-12-03T18:18:01.639Z,101995.31
2022-12-03T18:20:29.568Z,101983.81
2022-12-03T18:22:59.066Z,101981.13
2022-12-03T18:25:28.933Z,101981.13
2022-12-03T18:27:56.751Z,101982.31
2022-12-03T18:30:24.596Z,101985.06
2022-12-03T18:32:53.682Z,101985.78
2022-12-03T18:35:21.615Z,101980.53
2022-12-03T18:37:51.057Z,101979.09
2022-12-03T18:40:20.818Z,101983.69
2022-12-03T18:42:48.603Z,101974.03
2022-12-03T18:45:17.020Z,101971.69
2022-12-03T18:47:45.108Z,101967.03
2022-12-03T18:50:14.925Z,101975.81
2022-12-03T18:52:42.706Z,101977.28
2022-12-03T18:55:17.480Z,101963.88
2022-12-03T18:57:45.600Z,101969.31
2022-12-03T19:00:14.934Z,101973.91
2022-12-03T19:05:32.939Z,101963.31
2022-12-03T19:08:01.003Z,101969.50
2022-12-03T19:10:29.151Z,101973.31
2022-12-03T19:12:56.948Z,101967.16
2022-12-03T19:15:24.772Z,101966.00
2022-12-03T19:17:52.561Z,101968.78
2022-12-03T19:20:20.546Z,101966.75
2022-12-03T19:22:49.692Z,101975.25
2022-12-03T19:25:17.572Z,101976.75
2022-12-03T19:27:45.377Z,101967.16
2022-12-03T19:30:13.922Z,101969.41
2022-12-03T19:32:41.674Z,101969.84
2022-12-03T19:35:11.298Z,101967.09
2022-12-03T19:37:39.276Z,101970.50
2022-12-03T19:40:11.182Z,101960.91
2022-12-03T19:42:39.162Z,101963.94
2022-12-03T19:45:08.143Z,101960.81
2022-12-03T19:47:36.006Z,101959.97
2022-12-03T19:50:03.976Z,101958.78
2022-12-03T19:52:31.904Z,101950.31
2022-12-03T19:54:59.643Z,101954.13
2022-12-03T19:57:29.343Z,101951.44
2022-12-03T19:59:57.475Z,101949.47
2022-12-03T20:02:25.618Z,101945.59
2022-12-03T20:04:53.449Z,101950.97
2022-12-03T20:07:21.256Z,101947.56
2022-12-03T20:09:51.300Z,101951.38
2022-12-03T20:12:19.135Z,101952.88
2022-12-03T20:14:49.862Z,101955.19
2022-12-03T20:17:17.667Z,101960.63
2022-12-03T20:19:45.485Z,101956.06
2022-12-03T20:22:13.316Z,101959.44
2022-12-03T20:24:41.062Z,101956.75
2022-12-03T20:27:08.808Z,101956.75
2022-12-03T20:29:36.592Z,101950.59
2022-12-03T20:32:06.982Z,101946.00
2022-12-03T20:34:35.977Z,101944.16
2022-12-03T20:37:03.956Z,101947.56
2022-12-03T20:39:31.811Z,101945.34
2022-12-03T20:41:59.576Z,101939.63
2022-12-03T20:44:27.393Z,101941.91
2022-12-03T20:46:55.148Z,101942.31
2022-12-03T20:49:24.257Z,101939.13
2022-12-03T20:51:52.008Z,101938.38
2022-12-03T20:54:19.816Z,101926.81
2022-12-03T20:56:47.595Z,101926.09
2022-12-03T20:59:17.305Z,101912.59
2022-12-03T21:01:46.720Z,101916.47
2022-12-03T21:04:16.038Z,101920.34
2022-12-03T21:06:46.592Z,101925.25
2022-12-03T21:09:14.462Z,101923.41
2022-12-03T21:11:42.699Z,101921.50
2022-12-03T21:14:12.477Z,101920.00
2022-12-03T21:19:30.311Z,101927.81
2022-12-03T21:21:59.453Z,101917.13
2022-12-03T21:24:27.218Z,101930.22
2022-12-03T21:26:55.039Z,101923.56
2022-12-03T21:29:23.180Z,101919.69
2022-12-03T21:31:51.132Z,101916.25
2022-12-03T21:34:18.874Z,101913.97
2022-12-03T21:36:46.795Z,101918.88
2022-12-03T21:39:16.047Z,101916.19
2022-12-03T21:42:34.077Z,101920.34
2022-12-03T21:44:31.670Z,101915.41
2022-12-03T21:47:11.018Z,101913.50
2022-12-03T21:49:40.848Z,101923.09
2022-12-03T21:52:08.583Z,101921.03
2022-12-03T21:54:37.772Z,101913.66
2022-12-03T21:57:05.503Z,101920.94
2022-12-03T21:59:33.263Z,101921.72
2022-12-03T22:02:01.128Z,101917.50
2022-12-03T22:04:29.048Z,101911.34
2022-12-03T22:06:56.860Z,101909.75
2022-12-03T22:09:26.723Z,101915.94
2022-12-03T22:11:57.619Z,101903.31
2022-12-03T22:14:25.474Z,101908.38
2022-12-03T22:16:53.237Z,101907.88
2022-12-03T22:19:23.439Z,101911.34
2022-12-03T22:21:51.234Z,101911.34
2022-12-03T22:24:19.501Z,101909.09
2022-12-03T22:26:48.055Z,101912.06
2022-12-03T22:29:17.172Z,101898.59
2022-12-03T22:31:45.308Z,101901.31
2022-12-03T22:34:13.042Z,101906.00
2022-12-03T22:36:41.094Z,101907.09
2022-12-03T22:39:08.911Z,101913.25
2022-12-03T22:41:36.832Z,101908.25
2022-12-03T22:44:04.645Z,101906.75
2022-12-03T22:46:33.832Z,101907.53
2022-12-03T22:49:06.843Z,101908.03
2022-12-03T22:51:35.831Z,101895.41
2022-12-03T22:54:03.755Z,101893.94
2022-12-03T22:56:32.461Z,101897.75
2022-12-03T22:59:00.338Z,101903.06
2022-12-03T23:01:30.573Z,101894.19
2022-12-03T23:04:00.210Z,101888.50
2022-12-03T23:06:29.173Z,101891.97
2022-12-03T23:08:57.632Z,101887.75
2022-12-03T23:11:25.733Z,101886.56
2022-12-03T23:13:53.589Z,101878.06
2022-12-03T23:16:24.301Z,101878.50
2022-12-03T23:18:52.131Z,101879.69
2022-12-03T23:21:29.429Z,101876.28
2022-12-03T23:23:58.193Z,101877.03
2022-12-03T23:26:26.236Z,101882.72
2022-12-03T23:28:54.099Z,101878.06
2022-12-03T23:31:24.454Z,101883.88
2022-12-03T23:33:53.073Z,101886.16
2022-12-03T23:36:23.295Z,101885.81
2022-12-03T23:38:51.155Z,101891.63
2022-12-03T23:41:21.168Z,101884.34
2022-12-03T23:43:49.044Z,101891.31
2022-12-03T23:46:18.118Z,101888.22
2022-12-03T23:48:46.408Z,101890.59
2022-12-03T23:51:16.106Z,101891.66
2022-12-03T23:53:45.720Z,101887.00
2022-12-03T23:56:15.616Z,101889.75
2022-12-03T23:58:43.500Z,101877.13
